Time;durP1;ratioP1;P1;durP2;ratioP2;P2;SDS_P1;SDS_P2;PMS_P1;PMS_P2;Temp;Humidity;BMP_temperature;BMP_pressure;BME280_temperature;BME280_humidity;BME280_pressure;Samples;Min_cycle;Max_cycle;Signal;HPM_P1;HPM_P2
2022/01/11 00:00:35;;;;;;;191.38;55.90;;;0.50;99.90;;;;;;5094512;27;20101;-69
2022/01/11 00:03:03;;;;;;;118.35;39.10;;;0.00;99.90;;;;;;5082192;28;20044;-69
2022/01/11 00:05:41;;;;;;;102.93;40.00;;;-0.30;99.90;;;;;;5083788;28;20405;-69
2022/01/11 00:08:09;;;;;;;109.05;39.63;;;0.20;99.90;;;;;;5067390;28;20040;-69
2022/01/11 00:10:48;;;;;;;172.55;49.88;;;0.00;99.90;;;;;;5053811;28;20042;-69
2022/01/11 00:13:16;;;;;;;136.73;37.78;;;0.20;99.90;;;;;;5080636;28;20043;-69
2022/01/11 00:15:41;;;;;;;129.23;40.92;;;0.10;99.90;;;;;;5049481;28;20074;-69
2022/01/11 00:18:07;;;;;;;150.80;48.40;;;-0.10;99.90;;;;;;5086469;28;20075;-69
2022/01/11 00:20:35;;;;;;;114.85;37.63;;;-0.30;99.90;;;;;;5084637;28;20421;-69
2022/01/11 00:25:29;;;;;;;108.53;38.10;;;0.30;99.90;;;;;;5085050;28;20048;-69
2022/01/11 00:27:55;;;;;;;119.00;43.30;;;-0.20;99.90;;;;;;5088898;28;20070;-69
2022/01/11 00:30:22;;;;;;;116.38;42.45;;;-0.10;99.90;;;;;;5071062;28;20107;-69
2022/01/11 00:32:53;;;;;;;109.60;44.28;;;-0.30;99.90;;;;;;5086395;28;20080;-69
2022/01/11 00:35:23;;;;;;;103.82;44.97;;;0.00;99.90;;;;;;5085458;28;20543;-69
2022/01/11 00:37:49;;;;;;;130.00;48.42;;;-0.20;99.90;;;;;;5070421;28;20055;-70
2022/01/11 00:40:15;;;;;;;138.73;49.28;;;-0.20;99.90;;;;;;5083232;28;20042;-70
2022/01/11 00:42:41;;;;;;;94.13;42.38;;;0.50;99.90;;;;;;5082328;28;20067;-70
2022/01/11 00:45:10;;;;;;;100.95;41.38;;;-0.40;99.90;;;;;;5083703;28;20044;-70
2022/01/11 00:47:36;;;;;;;104.85;41.67;;;-0.20;99.90;;;;;;5097071;28;20043;-70
2022/01/11 00:50:04;;;;;;;95.18;39.85;;;0.10;99.90;;;;;;5089280;28;20417;-70
2022/01/11 00:52:30;;;;;;;108.97;41.28;;;-0.30;99.90;;;;;;5070665;28;20131;-70
2022/01/11 00:54:55;;;;;;;95.28;40.45;;;-0.10;99.90;;;;;;5071813;28;20118;-70
2022/01/11 00:57:22;;;;;;;85.72;35.22;;;0.50;99.90;;;;;;5083762;28;20089;-70
2022/01/11 00:59:48;;;;;;;116.38;44.42;;;-0.10;99.90;;;;;;5062791;28;20043;-70
2022/01/11 01:02:14;;;;;;;126.38;47.03;;;-0.10;99.90;;;;;;5069503;28;20036;-70
2022/01/11 01:04:40;;;;;;;133.63;47.80;;;0.00;99.90;;;;;;5087956;28;20042;-70
2022/01/11 01:07:06;;;;;;;104.75;36.97;;;0.00;99.90;;;;;;5054628;28;20669;-70
2022/01/11 01:09:43;;;;;;;194.38;55.78;;;0.10;99.90;;;;;;5070307;28;20044;-70
2022/01/11 01:12:09;;;;;;;113.95;42.72;;;-0.30;99.90;;;;;;5072512;28;20043;-70
2022/01/11 01:14:35;;;;;;;202.18;58.00;;;-0.20;99.90;;;;;;5080377;28;20035;-70
2022/01/11 01:17:01;;;;;;;190.00;51.60;;;-0.30;99.90;;;;;;5078094;28;20063;-70
2022/01/11 01:19:27;;;;;;;165.82;51.47;;;-0.20;99.90;;;;;;5070977;28;20044;-70
2022/01/11 01:21:55;;;;;;;198.43;58.42;;;0.10;99.90;;;;;;5081193;28;20036;-70
2022/01/11 01:24:21;;;;;;;128.05;43.00;;;-0.30;99.90;;;;;;5090282;28;20054;-70
2022/01/11 01:26:47;;;;;;;179.02;53.22;;;0.00;99.90;;;;;;5054820;28;20051;-70
2022/01/11 01:29:15;;;;;;;154.05;43.45;;;-0.10;99.90;;;;;;5083837;28;20050;-70
2022/01/11 01:31:41;;;;;;;232.48;60.00;;;0.00;99.90;;;;;;5087170;28;20127;-70
2022/01/11 01:34:07;;;;;;;169.63;53.15;;;0.00;99.90;;;;;;5081036;28;20122;-70
2022/01/11 01:36:33;;;;;;;131.27;39.85;;;-0.40;99.90;;;;;;5087530;28;20043;-70
2022/01/11 01:38:59;;;;;;;217.35;54.90;;;-0.10;99.90;;;;;;5084664;28;20035;-70
2022/01/11 01:41:26;;;;;;;187.20;53.65;;;0.00;99.90;;;;;;5087495;28;20572;-70
2022/01/11 01:43:55;;;;;;;155.82;48.67;;;0.00;99.90;;;;;;5067143;28;20110;-70
2022/01/11 01:46:23;;;;;;;187.15;51.25;;;-0.30;99.90;;;;;;5088422;28;20056;-70
2022/01/11 01:48:49;;;;;;;199.50;54.10;;;0.00;99.90;;;;;;5067428;28;20510;-70
2022/01/11 01:51:16;;;;;;;319.27;71.32;;;-0.20;99.90;;;;;;5075502;28;20130;-70
2022/01/11 01:53:47;;;;;;;259.65;63.45;;;-0.20;99.90;;;;;;5081644;28;20470;-70
2022/01/11 01:56:14;;;;;;;164.80;45.55;;;-0.10;99.90;;;;;;5082462;28;20531;-70
2022/01/11 01:58:42;;;;;;;158.40;50.10;;;-0.10;99.90;;;;;;5083484;28;20048;-70
2022/01/11 02:01:08;;;;;;;138.75;39.20;;;-0.30;99.90;;;;;;5088278;28;20047;-70
2022/01/11 02:03:39;;;;;;;224.10;58.08;;;-0.20;99.90;;;;;;5067499;28;20031;-70
2022/01/11 02:06:14;;;;;;;234.93;55.38;;;-0.30;99.90;;;;;;5069608;28;20036;-70
2022/01/11 02:08:42;;;;;;;189.23;51.55;;;-0.20;99.90;;;;;;5084120;28;20050;-70
2022/01/11 02:11:08;;;;;;;147.48;42.92;;;-0.30;99.90;;;;;;5084267;28;20044;-70
2022/01/11 02:13:34;;;;;;;238.02;60.72;;;0.00;99.90;;;;;;5083228;28;20496;-70
2022/01/11 02:16:00;;;;;;;150.73;40.55;;;-0.20;99.90;;;;;;5072455;28;20039;-70
2022/01/11 02:18:27;;;;;;;297.88;68.35;;;0.10;99.90;;;;;;5059653;28;20032;-70
2022/01/11 02:20:58;;;;;;;268.00;62.67;;;0.10;99.90;;;;;;5088824;28;20071;-70
2022/01/11 02:23:28;;;;;;;283.13;63.45;;;0.00;99.90;;;;;;5084478;28;20483;-70
2022/01/11 02:25:54;;;;;;;301.73;71.63;;;-0.20;99.90;;;;;;5084875;28;20040;-70
2022/01/11 02:28:22;;;;;;;382.92;71.43;;;-0.20;99.90;;;;;;5068630;28;20610;-70
2022/01/11 02:30:49;;;;;;;258.10;64.32;;;0.00;99.90;;;;;;5082508;28;20032;-70
2022/01/11 02:33:30;;;;;;;303.45;69.90;;;-0.20;99.90;;;;;;5080580;28;20060;-70
2022/01/11 02:35:55;;;;;;;228.68;53.65;;;0.20;99.90;;;;;;5085732;28;20395;-70
2022/01/11 02:38:21;;;;;;;256.77;65.57;;;-0.20;99.90;;;;;;5054694;28;20032;-70
2022/01/11 02:40:47;;;;;;;254.38;63.83;;;-0.20;99.90;;;;;;5067081;28;20491;-70
2022/01/11 02:43:12;;;;;;;315.02;69.53;;;0.80;99.90;;;;;;5067258;28;20493;-70
2022/01/11 02:45:38;;;;;;;291.35;70.28;;;-0.20;99.90;;;;;;5083925;28;20036;-70
2022/01/11 02:48:04;;;;;;;348.05;73.15;;;-0.20;99.90;;;;;;5068330;28;20423;-70
2022/01/11 02:50:30;;;;;;;242.27;60.10;;;0.10;99.90;;;;;;5075406;28;20787;-70
2022/01/11 02:52:55;;;;;;;294.95;66.78;;;0.00;99.90;;;;;;5078118;28;20516;-70
2022/01/11 02:55:21;;;;;;;332.88;70.13;;;-0.10;99.90;;;;;;5064603;28;20402;-70
2022/01/11 02:57:47;;;;;;;367.17;79.68;;;0.10;99.90;;;;;;5077784;28;20496;-70
2022/01/11 03:00:17;;;;;;;300.25;70.00;;;0.00;99.90;;;;;;5075944;28;20098;-70
2022/01/11 03:02:43;;;;;;;391.38;80.80;;;0.20;99.90;;;;;;5081018;28;20119;-70
2022/01/11 03:05:10;;;;;;;325.60;71.70;;;-0.10;99.90;;;;;;5068125;28;20075;-70
2022/01/11 03:07:38;;;;;;;273.17;61.13;;;0.10;99.90;;;;;;5085285;28;20028;-70
2022/01/11 03:10:54;;;;;;;308.13;69.18;;;0.40;99.90;;;;;;5061198;28;20504;-70
2022/01/11 03:12:55;;;;;;;264.50;64.38;;;0.10;99.90;;;;;;5056628;28;20047;-70
2022/01/11 03:15:20;;;;;;;292.10;70.15;;;0.10;99.90;;;;;;5047255;28;20044;-70
2022/01/11 03:17:46;;;;;;;312.48;71.50;;;0.10;99.90;;;;;;5069815;28;20044;-70
2022/01/11 03:20:12;;;;;;;292.17;68.75;;;0.10;99.90;;;;;;5075428;28;20090;-70
2022/01/11 03:22:38;;;;;;;275.67;65.22;;;-0.10;99.90;;;;;;5038394;28;20356;-70
2022/01/11 03:25:05;;;;;;;314.15;66.40;;;0.30;99.90;;;;;;5058509;28;20438;-70
2022/01/11 03:27:31;;;;;;;335.65;74.20;;;-0.20;99.90;;;;;;5079108;28;20063;-70
2022/01/11 03:29:57;;;;;;;247.05;62.00;;;0.00;99.90;;;;;;5077022;28;20036;-70
2022/01/11 03:32:23;;;;;;;248.70;56.75;;;0.10;99.90;;;;;;5067610;28;20036;-70
2022/01/11 03:34:49;;;;;;;226.48;54.42;;;0.10;99.90;;;;;;5081396;28;20071;-70
2022/01/11 03:37:17;;;;;;;199.63;51.75;;;0.30;99.90;;;;;;5081348;28;20036;-70
2022/01/11 03:39:44;;;;;;;321.90;71.28;;;0.40;99.90;;;;;;5086937;28;20098;-70
2022/01/11 03:42:10;;;;;;;287.88;66.30;;;0.00;99.90;;;;;;5082146;28;20062;-70
2022/01/11 03:44:35;;;;;;;357.30;73.78;;;-0.10;99.90;;;;;;5086137;28;20032;-70
2022/01/11 03:47:01;;;;;;;224.63;56.55;;;0.50;99.90;;;;;;5085029;28;20043;-70
2022/01/11 03:49:27;;;;;;;210.50;54.53;;;0.70;99.90;;;;;;5079883;28;20037;-70
2022/01/11 03:51:55;;;;;;;280.30;62.08;;;0.10;99.90;;;;;;5087253;28;20129;-70
2022/01/11 03:54:27;;;;;;;243.50;60.80;;;-0.20;99.90;;;;;;5094801;28;20655;-70
2022/01/11 03:56:54;;;;;;;156.02;41.88;;;0.00;99.90;;;;;;5075563;28;20450;-70
2022/01/11 03:59:20;;;;;;;183.38;53.70;;;0.20;99.90;;;;;;5090891;28;20172;-70
2022/01/11 04:01:46;;;;;;;235.93;59.92;;;0.20;99.90;;;;;;5070650;28;20124;-70
2022/01/11 04:04:12;;;;;;;282.90;65.47;;;0.00;99.90;;;;;;5089705;28;20134;-70
2022/01/11 04:06:39;;;;;;;235.60;56.72;;;0.00;99.90;;;;;;5084690;28;20040;-70
2022/01/11 04:09:07;;;;;;;163.85;43.90;;;0.20;99.90;;;;;;5081675;28;20032;-70
2022/01/11 04:11:33;;;;;;;205.77;54.72;;;0.00;99.90;;;;;;5084155;28;20047;-70
2022/01/11 04:13:58;;;;;;;123.40;39.88;;;-0.20;99.90;;;;;;5082847;28;20044;-70
2022/01/11 04:16:25;;;;;;;182.48;52.05;;;0.20;99.90;;;;;;5077257;28;20443;-70
2022/01/11 04:18:50;;;;;;;181.90;53.47;;;0.60;99.90;;;;;;5088188;28;20048;-70
2022/01/11 04:21:16;;;;;;;164.00;49.33;;;-0.20;99.90;;;;;;5053347;28;20066;-70
2022/01/11 04:23:42;;;;;;;131.18;42.78;;;0.00;99.90;;;;;;5088024;28;20048;-70
2022/01/11 04:26:07;;;;;;;145.18;48.17;;;0.20;99.90;;;;;;5081975;28;20039;-70
2022/01/11 04:28:33;;;;;;;106.22;37.03;;;-0.10;99.90;;;;;;5071612;28;20035;-70
2022/01/11 04:31:00;;;;;;;154.77;44.88;;;-0.10;99.90;;;;;;5064811;28;20043;-70
2022/01/11 04:33:27;;;;;;;136.95;44.25;;;0.10;99.90;;;;;;5068471;28;20674;-70
2022/01/11 04:35:53;;;;;;;79.80;28.00;;;0.30;99.90;;;;;;5091910;28;20065;-70
2022/01/11 04:38:22;;;;;;;84.80;29.70;;;0.30;99.90;;;;;;5084806;28;20090;-70
2022/01/11 04:40:49;;;;;;;108.60;40.05;;;0.60;99.90;;;;;;5086086;28;20048;-70
2022/01/11 04:43:14;;;;;;;103.82;36.20;;;0.30;99.90;;;;;;5079148;28;20395;-70
2022/01/11 04:45:40;;;;;;;119.97;41.50;;;0.10;99.90;;;;;;5066807;28;20039;-70
2022/01/11 04:48:06;;;;;;;127.68;41.70;;;0.30;99.90;;;;;;5068852;28;20067;-70
2022/01/11 04:50:32;;;;;;;117.18;41.03;;;0.20;99.90;;;;;;5070841;28;22773;-70
2022/01/11 04:52:59;;;;;;;103.45;35.70;;;0.10;99.90;;;;;;5084320;28;20088;-70
2022/01/11 04:55:25;;;;;;;106.93;41.40;;;-0.10;99.90;;;;;;5083631;28;20048;-70
2022/01/11 04:57:51;;;;;;;85.80;30.67;;;0.00;99.90;;;;;;5087877;28;20039;-70
2022/01/11 05:00:18;;;;;;;103.60;36.80;;;0.40;99.90;;;;;;5087379;28;20088;-70
2022/01/11 05:02:44;;;;;;;89.90;33.05;;;0.70;99.90;;;;;;5084496;28;20036;-70
2022/01/11 05:05:10;;;;;;;81.65;32.75;;;0.80;99.90;;;;;;5085679;28;20151;-70
2022/01/11 05:07:36;;;;;;;105.75;34.67;;;0.00;99.90;;;;;;5073880;28;20046;-70
2022/01/11 05:10:04;;;;;;;90.22;30.50;;;0.20;99.90;;;;;;5061740;28;20039;-70
2022/01/11 05:12:30;;;;;;;109.72;39.15;;;0.10;99.90;;;;;;5069453;28;20051;-70
2022/01/11 05:14:56;;;;;;;97.15;34.60;;;0.10;99.90;;;;;;5087007;28;20423;-70
2022/01/11 05:17:22;;;;;;;113.40;40.72;;;;;;;;;;5086020;28;20039;-70
2022/01/11 05:19:49;;;;;;;134.50;46.47;;;0.10;99.90;;;;;;5082779;28;20040;-70
2022/01/11 05:22:15;;;;;;;116.53;40.80;;;0.00;99.90;;;;;;5088581;28;20027;-70
2022/01/11 05:24:41;;;;;;;127.57;43.17;;;0.10;99.90;;;;;;5068630;28;20125;-70
2022/01/11 05:27:07;;;;;;;127.25;44.13;;;0.00;99.90;;;;;;5083850;28;20081;-70
2022/01/11 05:29:33;;;;;;;140.30;47.63;;;0.00;99.90;;;;;;5081631;28;20035;-70
2022/01/11 05:31:59;;;;;;;125.75;44.28;;;0.10;99.90;;;;;;5072811;28;20561;-70
2022/01/11 05:34:26;;;;;;;135.02;46.22;;;0.10;99.90;;;;;;5065895;28;20036;-70
2022/01/11 05:36:52;;;;;;;108.68;40.38;;;0.10;99.90;;;;;;5084668;28;20499;-70
2022/01/11 05:39:18;;;;;;;114.40;42.85;;;0.10;99.90;;;;;;5088266;28;20126;-70
2022/01/11 05:41:44;;;;;;;107.82;40.95;;;0.10;99.90;;;;;;5084532;28;20111;-70
2022/01/11 05:44:10;;;;;;;140.52;45.83;;;0.20;99.90;;;;;;5081995;28;20763;-70
2022/01/11 05:46:35;;;;;;;129.45;45.85;;;0.90;99.90;;;;;;5084559;28;20046;-70
2022/01/11 05:49:02;;;;;;;116.63;42.25;;;0.20;99.90;;;;;;5084331;28;20035;-70
2022/01/11 05:51:27;;;;;;;113.85;42.88;;;0.20;99.90;;;;;;5085432;28;20051;-70
2022/01/11 05:53:55;;;;;;;123.85;43.63;;;0.20;99.90;;;;;;5079120;28;20043;-70
2022/01/11 05:56:21;;;;;;;114.28;42.25;;;0.10;99.90;;;;;;5080008;28;20048;-70
2022/01/11 05:58:47;;;;;;;96.90;40.30;;;0.10;99.90;;;;;;5079393;28;20575;-69
2022/01/11 06:01:14;;;;;;;90.80;34.65;;;0.20;99.90;;;;;;5075829;28;20527;-69
2022/01/11 06:03:40;;;;;;;91.75;34.97;;;0.20;99.90;;;;;;5076665;28;20450;-69
2022/01/11 06:06:06;;;;;;;111.30;41.83;;;0.20;99.90;;;;;;5078725;28;20115;-69
2022/01/11 06:08:32;;;;;;;98.35;37.50;;;0.20;99.90;;;;;;5077011;28;20529;-69
2022/01/11 06:10:58;;;;;;;88.72;33.60;;;0.20;99.90;;;;;;5072882;28;20089;-69
2022/01/11 06:13:24;;;;;;;109.93;42.17;;;0.20;99.90;;;;;;5064052;28;20044;-69
2022/01/11 06:15:51;;;;;;;111.95;42.47;;;0.20;99.90;;;;;;5077417;28;20043;-69
2022/01/11 06:18:18;;;;;;;94.50;39.25;;;0.30;99.90;;;;;;5067517;28;20496;-69
2022/01/11 06:20:44;;;;;;;102.90;41.67;;;0.30;99.90;;;;;;5063356;28;20032;-69
2022/01/11 06:23:10;;;;;;;103.03;37.60;;;0.10;99.90;;;;;;5065665;28;20040;-69
2022/01/11 06:25:36;;;;;;;97.00;34.15;;;1.10;99.90;;;;;;5083166;28;20051;-69
2022/01/11 06:28:03;;;;;;;107.78;37.47;;;0.10;99.90;;;;;;5080564;28;20115;-69
2022/01/11 06:30:29;;;;;;;116.38;43.85;;;0.10;99.90;;;;;;5073878;28;20036;-69
2022/01/11 06:32:56;;;;;;;125.57;46.00;;;0.10;99.90;;;;;;5080367;28;20491;-69
2022/01/11 06:35:22;;;;;;;114.93;39.72;;;0.10;99.90;;;;;;5075792;28;20082;-69
2022/01/11 06:37:49;;;;;;;112.00;45.15;;;0.10;99.90;;;;;;5071444;28;20126;-69
2022/01/11 06:40:17;;;;;;;104.65;36.72;;;0.10;99.90;;;;;;5073106;28;20051;-69
2022/01/11 06:42:44;;;;;;;127.88;44.53;;;0.10;99.90;;;;;;5063459;28;20037;-69
2022/01/11 06:45:11;;;;;;;121.43;43.03;;;0.10;99.90;;;;;;5080713;28;20048;-69
2022/01/11 06:47:38;;;;;;;112.68;39.55;;;0.10;99.90;;;;;;5063658;28;20116;-69
2022/01/11 06:50:04;;;;;;;108.35;41.85;;;0.50;99.90;;;;;;5066631;28;20040;-69
2022/01/11 06:52:30;;;;;;;111.38;42.50;;;0.10;99.90;;;;;;5068309;28;20087;-69
2022/01/11 06:54:55;;;;;;;112.03;42.30;;;0.10;99.90;;;;;;5064673;28;20087;-69
2022/01/11 06:57:21;;;;;;;112.18;45.70;;;0.10;99.90;;;;;;5062679;28;20477;-69
2022/01/11 06:59:47;;;;;;;91.45;37.17;;;0.10;99.90;;;;;;5043207;28;20049;-69
2022/01/11 07:02:13;;;;;;;97.90;37.97;;;0.10;99.90;;;;;;5064899;28;20656;-69
2022/01/11 07:04:38;;;;;;;107.35;43.75;;;0.10;99.90;;;;;;5052495;28;20044;-69
2022/01/11 07:07:07;;;;;;;114.40;41.47;;;0.10;99.90;;;;;;5060582;28;20044;-70
2022/01/11 07:09:34;;;;;;;107.43;40.33;;;0.00;99.90;;;;;;5080412;28;20041;-69
2022/01/11 07:12:00;;;;;;;105.40;41.83;;;0.10;99.90;;;;;;5049700;28;20037;-69
2022/01/11 07:14:26;;;;;;;111.75;44.05;;;0.00;99.90;;;;;;5061985;28;20102;-69
2022/01/11 07:16:51;;;;;;;88.47;34.45;;;0.00;99.90;;;;;;5061468;28;20063;-69
2022/01/11 07:19:18;;;;;;;114.88;42.58;;;0.10;99.90;;;;;;5052293;28;20051;-69
2022/01/11 07:21:45;;;;;;;93.93;39.60;;;0.90;99.90;;;;;;5047524;28;20029;-69
2022/01/11 07:24:15;;;;;;;103.15;39.10;;;0.20;99.90;;;;;;5066965;28;20045;-69
2022/01/11 07:26:41;;;;;;;96.88;34.53;;;0.00;99.90;;;;;;5045594;28;20400;-69
2022/01/11 07:29:07;;;;;;;71.38;26.60;;;0.00;99.90;;;;;;5065965;28;20495;-70
2022/01/11 07:31:38;;;;;;;86.03;35.90;;;0.00;99.90;;;;;;5046313;28;20385;-69
2022/01/11 07:34:05;;;;;;;93.97;36.45;;;-0.10;99.90;;;;;;5066838;28;20128;-69
2022/01/11 07:36:31;;;;;;;86.75;32.50;;;-0.10;99.90;;;;;;5067565;28;20361;-69
2022/01/11 07:38:57;;;;;;;90.18;35.40;;;0.80;99.90;;;;;;5066197;28;20067;-70
2022/01/11 07:41:22;;;;;;;81.57;34.38;;;-0.10;99.90;;;;;;5046413;28;20033;-69
2022/01/11 07:43:48;;;;;;;94.30;36.88;;;0.00;99.90;;;;;;5064143;28;20090;-69
2022/01/11 07:46:14;;;;;;;99.60;36.75;;;0.00;99.90;;;;;;5070256;28;20036;-69
2022/01/11 07:48:39;;;;;;;69.47;28.27;;;0.00;99.90;;;;;;5059843;28;20032;-69
2022/01/11 07:51:05;;;;;;;102.20;41.50;;;-0.10;99.90;;;;;;5086472;28;20047;-69
2022/01/11 07:53:31;;;;;;;83.30;34.30;;;0.00;99.90;;;;;;5061326;28;20039;-69
2022/01/11 07:55:57;;;;;;;91.70;35.08;;;0.00;99.90;;;;;;5082206;28;20082;-69
2022/01/11 07:58:23;;;;;;;84.43;34.40;;;0.00;99.90;;;;;;5082429;28;20067;-69
2022/01/11 08:00:48;;;;;;;83.82;32.90;;;0.00;99.90;;;;;;5055497;28;20040;-69
2022/01/11 08:03:14;;;;;;;77.78;33.35;;;0.10;99.90;;;;;;5050964;28;20166;-72
2022/01/11 08:05:40;;;;;;;88.20;33.85;;;0.10;99.90;;;;;;5067399;28;20062;-69
2022/01/11 08:08:06;;;;;;;72.68;32.97;;;0.10;99.90;;;;;;5069388;28;20043;-69
2022/01/11 08:10:32;;;;;;;77.47;32.17;;;0.10;99.90;;;;;;5060164;28;20044;-69
2022/01/11 08:12:57;;;;;;;81.53;32.65;;;0.20;99.90;;;;;;5084442;28;20450;-69
2022/01/11 08:15:23;;;;;;;77.03;31.35;;;0.20;99.90;;;;;;5069349;28;20039;-69
2022/01/11 08:17:49;;;;;;;66.20;28.10;;;0.20;99.90;;;;;;5086571;28;20547;-69
2022/01/11 08:20:15;;;;;;;48.08;21.98;;;0.20;99.90;;;;;;5081866;28;20040;-69
2022/01/11 08:22:41;;;;;;;69.05;28.38;;;0.20;99.90;;;;;;5080405;28;20428;-69
2022/01/11 08:25:08;;;;;;;60.65;28.73;;;0.20;99.90;;;;;;5065807;28;20075;-69
2022/01/11 08:27:33;;;;;;;73.18;30.48;;;0.30;99.90;;;;;;5087206;28;20086;-69
2022/01/11 08:30:01;;;;;;;51.85;26.48;;;-0.20;99.90;;;;;;5062030;28;20422;-69
2022/01/11 08:32:26;;;;;;;55.35;26.50;;;0.30;99.90;;;;;;5078892;28;20090;-69
2022/01/11 08:34:52;;;;;;;53.47;24.45;;;0.30;99.90;;;;;;5077675;28;20412;-69
2022/01/11 08:37:18;;;;;;;49.33;21.88;;;0.40;99.90;;;;;;5081409;28;20063;-70
2022/01/11 08:39:44;;;;;;;60.78;26.35;;;0.40;99.90;;;;;;5066061;28;20299;-70
2022/01/11 08:42:14;;;;;;;43.92;21.60;;;0.60;99.90;;;;;;5062263;28;20041;-70
2022/01/11 08:44:46;;;;;;;46.30;19.73;;;0.40;99.90;;;;;;5084560;28;20036;-70
2022/01/11 08:47:13;;;;;;;45.65;20.98;;;0.40;99.90;;;;;;5068213;28;20047;-70
2022/01/11 08:49:39;;;;;;;45.47;22.73;;;0.50;99.90;;;;;;5082693;28;20039;-70
2022/01/11 08:52:05;;;;;;;48.65;21.17;;;0.50;99.90;;;;;;5077022;28;20109;-70
2022/01/11 08:54:31;;;;;;;41.17;19.80;;;0.50;99.90;;;;;;5078206;28;20055;-70
2022/01/11 08:56:57;;;;;;;40.42;22.38;;;0.50;99.90;;;;;;5047770;28;20131;-70
2022/01/11 08:59:25;;;;;;;42.83;20.08;;;0.50;99.90;;;;;;5078495;28;20102;-70
2022/01/11 09:01:52;;;;;;;39.97;19.17;;;0.50;99.90;;;;;;5088339;28;20411;-70
2022/01/11 09:04:18;;;;;;;42.13;18.30;;;0.50;99.90;;;;;;5079487;28;20135;-70
2022/01/11 09:06:44;;;;;;;38.65;19.67;;;0.60;99.90;;;;;;5079577;28;20083;-70
2022/01/11 09:09:12;;;;;;;39.78;16.65;;;0.60;99.90;;;;;;5083351;28;20036;-70
2022/01/11 09:11:37;;;;;;;37.25;18.58;;;0.60;99.90;;;;;;5083780;28;20044;-70
2022/01/11 09:14:03;;;;;;;34.50;18.60;;;0.60;99.90;;;;;;5064628;28;20036;-70
2022/01/11 09:16:29;;;;;;;42.55;21.20;;;0.70;99.90;;;;;;5083660;28;20043;-70
2022/01/11 09:18:55;;;;;;;36.40;18.58;;;0.70;99.90;;;;;;5080810;28;20043;-70
2022/01/11 09:21:22;;;;;;;40.65;19.70;;;0.70;99.90;;;;;;5077873;28;20035;-70
2022/01/11 09:23:48;;;;;;;36.10;19.10;;;0.70;99.90;;;;;;5088699;28;20055;-70
2022/01/11 09:26:14;;;;;;;36.97;18.63;;;0.70;99.90;;;;;;5076495;28;20032;-70
2022/01/11 09:28:40;;;;;;;29.83;17.17;;;0.70;99.90;;;;;;5070039;28;20067;-70
2022/01/11 09:31:07;;;;;;;43.30;19.50;;;1.40;99.90;;;;;;5085499;28;20040;-70
2022/01/11 09:33:33;;;;;;;34.00;18.95;;;0.70;99.90;;;;;;5081585;28;20040;-70
2022/01/11 09:36:00;;;;;;;33.00;17.02;;;0.70;99.90;;;;;;5076670;28;20032;-70
2022/01/11 09:38:28;;;;;;;37.05;18.63;;;0.70;99.90;;;;;;5074375;28;20040;-70
2022/01/11 09:40:55;;;;;;;28.92;16.20;;;0.70;99.90;;;;;;5067005;28;20040;-71
2022/01/11 09:43:23;;;;;;;34.50;17.38;;;0.70;99.90;;;;;;5077482;28;20044;-70
2022/01/11 09:45:50;;;;;;;31.98;16.75;;;0.70;99.90;;;;;;5080689;28;20055;-70
2022/01/11 09:48:25;;;;;;;32.08;17.88;;;0.70;99.90;;;;;;5077374;28;20321;-70
2022/01/11 09:50:51;;;;;;;38.63;19.85;;;0.70;99.90;;;;;;5075994;28;20055;-70
2022/01/11 09:53:17;;;;;;;32.65;16.60;;;0.70;99.90;;;;;;5074829;28;20062;-70
2022/01/11 09:55:44;;;;;;;28.98;15.75;;;0.80;99.90;;;;;;5076661;28;20496;-70
2022/01/11 09:58:11;;;;;;;30.95;16.52;;;0.80;99.90;;;;;;5078694;28;20110;-71
2022/01/11 10:00:37;;;;;;;26.83;16.90;;;0.80;99.90;;;;;;5083626;28;20528;-70
2022/01/11 10:03:05;;;;;;;32.22;15.95;;;1.10;99.90;;;;;;5081123;28;20073;-70
2022/01/11 10:05:31;;;;;;;35.88;16.85;;;1.40;99.90;;;;;;5079758;28;20047;-70
2022/01/11 10:07:57;;;;;;;29.55;16.73;;;1.60;99.90;;;;;;5068405;28;20044;-71
2022/01/11 10:10:26;;;;;;;28.38;16.55;;;0.90;99.90;;;;;;5068392;28;20452;-70
2022/01/11 10:13:03;;;;;;;26.30;15.30;;;1.00;99.90;;;;;;5084005;28;20043;-70
2022/01/11 10:15:34;;;;;;;28.98;14.75;;;0.90;99.90;;;;;;5067328;28;20248;-71
2022/01/11 10:18:01;;;;;;;27.88;15.57;;;1.00;99.90;;;;;;5077988;28;20047;-70
2022/01/11 10:20:28;;;;;;;24.05;14.27;;;1.00;99.90;;;;;;5079594;28;20036;-70
2022/01/11 10:23:00;;;;;;;27.05;14.93;;;1.10;99.90;;;;;;5061789;28;20412;-70
2022/01/11 10:25:27;;;;;;;26.25;14.13;;;1.10;99.90;;;;;;5067453;28;20409;-71
2022/01/11 10:28:05;;;;;;;25.88;15.40;;;1.10;99.90;;;;;;5086623;28;20050;-70
2022/01/11 10:30:32;;;;;;;27.95;15.38;;;1.20;99.90;;;;;;5082435;28;20126;-70
2022/01/11 10:33:04;;;;;;;24.95;14.10;;;1.40;99.90;;;;;;5083218;28;20241;-70
2022/01/11 10:35:42;;;;;;;27.15;14.30;;;1.30;99.90;;;;;;5069965;28;20040;-70
2022/01/11 10:38:11;;;;;;;23.73;14.02;;;1.30;99.90;;;;;;5081632;28;20036;-70
2022/01/11 10:40:40;;;;;;;27.17;14.98;;;1.50;99.90;;;;;;5080518;28;20444;-70
2022/01/11 10:43:18;;;;;;;22.35;13.13;;;1.50;99.90;;;;;;5088870;28;20043;-70
2022/01/11 10:45:46;;;;;;;24.83;12.85;;;1.50;99.90;;;;;;5068561;28;20075;-70
2022/01/11 10:48:15;;;;;;;25.48;14.40;;;1.50;99.90;;;;;;5084493;28;20070;-70
2022/01/11 10:50:46;;;;;;;27.00;14.15;;;1.50;99.90;;;;;;5074029;28;20098;-70
2022/01/11 10:53:24;;;;;;;25.08;13.48;;;1.50;99.90;;;;;;5082553;28;20058;-70
2022/01/11 10:55:58;;;;;;;24.25;12.73;;;1.50;99.90;;;;;;5069321;28;20052;-70
2022/01/11 10:58:25;;;;;;;25.50;14.45;;;1.50;99.90;;;;;;5083810;28;20044;-70
2022/01/11 11:00:57;;;;;;;25.75;16.23;;;1.50;99.90;;;;;;5098948;28;20036;-70
2022/01/11 11:03:28;;;;;;;30.67;15.73;;;1.60;99.90;;;;;;5083202;28;20040;-70
2022/01/11 11:05:58;;;;;;;23.50;13.20;;;1.60;99.90;;;;;;5079700;28;20063;-71
2022/01/11 11:08:27;;;;;;;24.88;14.43;;;1.70;99.90;;;;;;5077192;28;20043;-70
2022/01/11 11:10:56;;;;;;;26.67;12.70;;;;;;;;;;5068106;28;20041;-70
2022/01/11 11:13:25;;;;;;;27.33;14.30;;;;;;;;;;5083796;28;20189;-71
2022/01/11 11:15:56;;;;;;;28.60;15.82;;;2.00;99.90;;;;;;5080547;28;20039;-71
2022/01/11 11:18:22;;;;;;;;;;;2.00;99.90;;;;;;5083727;28;20043;-70
2022/01/11 11:20:48;;;;;;;22.60;13.63;;;2.00;99.90;;;;;;5080982;28;20673;-70
2022/01/11 11:23:15;;;;;;;22.23;13.27;;;2.10;99.90;;;;;;5074777;28;20071;-69
2022/01/11 11:25:41;;;;;;;24.13;14.43;;;2.20;99.90;;;;;;5067117;28;20119;-70
2022/01/11 11:28:07;;;;;;;22.15;13.63;;;2.10;99.90;;;;;;5069627;28;20048;-70
2022/01/11 11:30:33;;;;;;;24.30;12.30;;;2.10;99.90;;;;;;5080101;28;20518;-70
2022/01/11 11:33:00;;;;;;;22.42;12.45;;;2.20;99.90;;;;;;5066648;28;20046;-70
2022/01/11 11:35:25;;;;;;;21.00;13.02;;;2.20;99.90;;;;;;5083732;28;20077;-69
2022/01/11 11:38:04;;;;;;;25.67;14.23;;;2.20;99.90;;;;;;5078442;28;20044;-69
2022/01/11 11:40:31;;;;;;;19.65;10.88;;;2.30;99.90;;;;;;5086482;28;20103;-70
2022/01/11 11:43:00;;;;;;;20.45;13.10;;;2.30;99.90;;;;;;5086046;28;20071;-69
2022/01/11 11:45:34;;;;;;;21.35;11.05;;;2.30;99.90;;;;;;5083709;28;20115;-69
2022/01/11 11:48:14;;;;;;;17.73;11.07;;;2.40;99.90;;;;;;5079537;28;20468;-69
2022/01/11 11:51:12;;;;;;;23.55;12.38;;;2.40;99.90;;;;;;5070820;28;20036;-71
2022/01/11 11:53:40;;;;;;;21.45;12.50;;;2.50;99.90;;;;;;5059509;28;20133;-70
2022/01/11 11:56:19;;;;;;;22.38;12.98;;;2.60;99.90;;;;;;5062450;28;20095;-70
2022/01/11 11:58:57;;;;;;;23.27;13.27;;;2.70;99.90;;;;;;5066051;28;20408;-70
2022/01/11 12:01:42;;;;;;;19.27;12.88;;;2.80;99.90;;;;;;5056422;28;20037;-70
2022/01/11 12:04:27;;;;;;;20.73;11.90;;;3.00;99.90;;;;;;5062715;28;20063;-69
2022/01/11 12:06:55;;;;;;;22.02;11.05;;;3.60;99.90;;;;;;5059521;28;20055;-70
2022/01/11 12:09:21;;;;;;;20.05;11.45;;;4.60;99.90;;;;;;5064101;28;20079;-70
2022/01/11 12:11:50;;;;;;;26.15;13.43;;;4.80;99.90;;;;;;5059870;28;20053;-70
2022/01/11 12:14:32;;;;;;;20.95;11.48;;;5.30;99.90;;;;;;5063340;28;20044;-70
2022/01/11 12:17:11;;;;;;;19.83;9.55;;;5.70;99.90;;;;;;5063200;28;20622;-70
2022/01/11 12:19:53;;;;;;;18.15;8.43;;;5.50;99.90;;;;;;5063633;28;20433;-70
2022/01/11 12:22:32;;;;;;;17.33;10.45;;;5.20;99.90;;;;;;5064942;28;20550;-70
2022/01/11 12:24:59;;;;;;;15.88;10.10;;;4.90;99.90;;;;;;5044769;28;20072;-70
2022/01/11 12:27:25;;;;;;;19.58;10.88;;;4.80;99.90;;;;;;5042650;28;20044;-70
2022/01/11 12:30:01;;;;;;;17.95;10.23;;;4.80;99.90;;;;;;5061126;28;20044;-70
2022/01/11 12:32:29;;;;;;;16.90;11.27;;;4.80;99.90;;;;;;5061400;28;20536;-71
2022/01/11 12:35:08;;;;;;;20.70;10.88;;;4.70;99.90;;;;;;5064946;28;20421;-71